ΕΜΥ, Εθνική Μετεωρολογική Υπηρεσία - Δελτία Καιρού, Προγνώσεις

ΑΕΡΟΝΑΥΤΙΛΙΑ

GREEK AIRPORTS CODES

LGAL 091950Z 03011KT 9999 FEW025 27/15 Q1010=

EUROPEAN AIRPORTS CODES